富士山静岡空港METAR/TAF(約33km東):

RJNS 181000Z 23005KT 9999 FEW025 15/10 Q1013

TAF RJNS 180509Z 1806/1912 21012KT 9999 FEW020 TEMPO 1815/1818 FEW005 BKN008 BECMG 1818/1821 27010KT TEMPO 1903/1909 26018G28KT

ソアリング用気象予報:
BLIPMAP 中部地方
中部日本航空連盟および大野グライダークラブの支援により運営されているソアリング用気象予報BLIPMAPの中部地方版です。

風向風力(Windy.com):
スマホでの閲覧には、アプリ版Windy(Android/iOS)が適切です。

EGC Icon